Terminal Aerodrome Forecast
Issued by NWS

Home | Current Version | Previous Version | Text Only | Print | Product List | Glossary On
Versions: 1 2 3 4 5 6 7 8 9 10 11 12 13 14 15 16
000
FTUS46 KLOX 232241 AAA
TAFPMD
TAF AMD
KPMD 232241Z 2323/2418 24017G25KT P6SM SKC
     FM240500 VRB03KT P6SM SKC
     FM240900 20008KT P6SM SKC=

USA.gov is the U.S. government's official web portal to all federal, state and local government web resources and services.